Time;durP1;ratioP1;P1;durP2;ratioP2;P2;SDS_P1;SDS_P2;PMS_P1;PMS_P2;Temp;Humidity;BMP_temperature;BMP_pressure;BME280_temperature;BME280_humidity;BME280_pressure;Samples;Min_cycle;Max_cycle;Signal;HPM_P1;HPM_P2
2021/08/27 00:01:39;;;;;;;15.80;13.23;;;;;;;;;;5039650;28;20025;-82
2021/08/27 00:04:05;;;;;;;13.73;12.32;;;;;;;;;;5057191;28;20029;-82
2021/08/27 00:06:31;;;;;;;14.60;12.45;;;;;;;;;;5057140;28;20121;-82
2021/08/27 00:08:58;;;;;;;15.68;12.68;;;;;;;;;;5039330;28;20021;-82
2021/08/27 00:11:24;;;;;;;14.15;12.73;;;;;;;;;;5057172;28;20056;-81
2021/08/27 00:13:50;;;;;;;18.67;12.63;;;;;;;;;;5056940;28;20047;-81
2021/08/27 00:16:16;;;;;;;14.50;12.70;;;;;;;;;;5056971;28;20052;-81
2021/08/27 00:18:42;;;;;;;15.13;13.18;;;;;;;;;;5056880;28;20318;-81
2021/08/27 00:21:09;;;;;;;13.88;12.40;;;;;;;;;;5056912;28;20032;-80
2021/08/27 00:23:35;;;;;;;15.02;12.77;;;;;;;;;;5038984;28;20041;-81
2021/08/27 00:26:01;;;;;;;17.98;14.27;;;;;;;;;;5056968;28;20159;-81
2021/08/27 00:28:27;;;;;;;15.48;13.13;;;;;;;;;;5056998;28;20033;-81
2021/08/27 00:30:57;;;;;;;15.13;13.50;;;;;;;;;;5056848;28;20029;-83
2021/08/27 00:33:23;;;;;;;16.58;13.48;;;;;;;;;;5056766;28;20025;-81
2021/08/27 00:35:49;;;;;;;14.98;13.25;;;;;;;;;;5056781;28;20422;-81
2021/08/27 00:38:15;;;;;;;15.48;13.00;;;;;;;;;;5056717;28;20474;-81
2021/08/27 00:40:42;;;;;;;15.63;14.02;;;;;;;;;;5057088;28;20311;-82
2021/08/27 00:43:08;;;;;;;16.17;14.48;;;;;;;;;;5039148;28;20380;-81
2021/08/27 00:45:34;;;;;;;16.45;14.75;;;;;;;;;;5056740;28;20078;-81
2021/08/27 00:48:01;;;;;;;16.13;13.10;;;;;;;;;;5056746;28;20025;-80
2021/08/27 00:50:27;;;;;;;15.23;13.68;;;;;;;;;;5056692;28;20025;-81
2021/08/27 00:52:53;;;;;;;14.60;13.20;;;;;;;;;;5056751;28;20476;-81
2021/08/27 00:55:19;;;;;;;15.23;13.05;;;;;;;;;;5039001;28;20035;-81
2021/08/27 00:57:45;;;;;;;16.50;13.90;;;;;;;;;;5056852;28;20071;-82
2021/08/27 01:00:11;;;;;;;17.60;15.45;;;;;;;;;;5039144;28;20399;-82
2021/08/27 01:02:38;;;;;;;20.65;15.48;;;;;;;;;;5056285;28;20029;-82
2021/08/27 01:05:05;;;;;;;18.67;15.20;;;;;;;;;;5056632;28;20072;-81
2021/08/27 01:07:35;;;;;;;19.23;14.88;;;;;;;;;;5038435;28;20067;-81
2021/08/27 01:10:11;;;;;;;16.50;14.60;;;;;;;;;;5056224;28;20461;-82
2021/08/27 01:12:40;;;;;;;19.98;13.98;;;;;;;;;;5056241;28;20063;-82
2021/08/27 01:15:18;;;;;;;20.15;14.10;;;;;;;;;;5056457;28;20402;-82
2021/08/27 01:17:50;;;;;;;17.05;13.80;;;;;;;;;;5056695;28;20049;-82
2021/08/27 01:20:22;;;;;;;17.02;14.02;;;;;;;;;;5056443;28;20027;-82
2021/08/27 01:22:48;;;;;;;14.23;12.73;;;;;;;;;;5056245;28;20037;-81
2021/08/27 01:25:17;;;;;;;17.92;13.18;;;;;;;;;;5038736;28;20075;-81
2021/08/27 01:27:44;;;;;;;15.13;13.52;;;;;;;;;;5038894;28;20029;-81
2021/08/27 01:30:16;;;;;;;14.52;13.00;;;;;;;;;;5057037;28;20059;-81
2021/08/27 01:32:46;;;;;;;17.30;14.45;;;;;;;;;;5059753;28;20446;-79
2021/08/27 01:35:14;;;;;;;15.98;14.13;;;;;;;;;;5042104;28;20021;-82
2021/08/27 01:37:45;;;;;;;17.15;13.73;;;;;;;;;;5041716;28;20304;-81
2021/08/27 01:40:11;;;;;;;15.80;14.20;;;;;;;;;;5059754;28;20029;-82
2021/08/27 01:42:37;;;;;;;17.50;14.30;;;;;;;;;;5042008;28;20021;-81
2021/08/27 01:45:04;;;;;;;16.83;13.80;;;;;;;;;;5042148;28;20029;-83
2021/08/27 01:47:33;;;;;;;16.75;13.90;;;;;;;;;;5041971;28;20472;-83
2021/08/27 01:50:00;;;;;;;19.27;14.35;;;;;;;;;;5059963;28;20036;-83
2021/08/27 01:52:26;;;;;;;18.45;14.60;;;;;;;;;;5059820;28;20031;-83
2021/08/27 01:54:55;;;;;;;17.20;14.18;;;;;;;;;;5059728;28;20025;-83
2021/08/27 01:57:21;;;;;;;16.98;14.30;;;;;;;;;;5059534;28;20407;-82
2021/08/27 01:59:47;;;;;;;18.48;14.68;;;;;;;;;;5059708;28;20067;-83
2021/08/27 02:02:15;;;;;;;16.90;13.95;;;;;;;;;;5041797;28;20029;-83
2021/08/27 02:04:42;;;;;;;20.10;13.95;;;;;;;;;;5041405;28;20033;-82
2021/08/27 02:07:09;;;;;;;17.02;12.13;;;;;;;;;;5059260;28;20403;-83
2021/08/27 02:09:36;;;;;;;16.95;12.13;;;;;;;;;;5041751;28;20502;-83
2021/08/27 02:12:03;;;;;;;19.30;12.85;;;;;;;;;;5059347;28;20036;-83
2021/08/27 02:14:30;;;;;;;14.65;11.80;;;;;;;;;;5059325;28;20025;-83
2021/08/27 02:16:56;;;;;;;15.18;11.82;;;;;;;;;;5059186;28;20060;-83
2021/08/27 02:19:22;;;;;;;13.05;11.23;;;;;;;;;;5059325;28;20395;-83
2021/08/27 02:21:53;;;;;;;15.10;11.60;;;;;;;;;;5059173;28;20017;-83
2021/08/27 02:24:21;;;;;;;14.30;11.02;;;;;;;;;;5058902;28;20053;-82
2021/08/27 02:26:47;;;;;;;17.75;11.32;;;;;;;;;;5059312;28;20387;-83
2021/08/27 02:29:15;;;;;;;13.00;10.90;;;;;;;;;;5040898;28;20127;-82
2021/08/27 02:31:52;;;;;;;14.80;10.98;;;;;;;;;;5059175;28;20025;-82
2021/08/27 02:34:19;;;;;;;15.27;11.32;;;;;;;;;;5058988;28;20322;-83
2021/08/27 02:36:46;;;;;;;14.52;11.52;;;;;;;;;;5041313;28;20028;-84
2021/08/27 02:39:14;;;;;;;14.48;10.95;;;;;;;;;;5059246;28;20056;-82
2021/08/27 02:41:41;;;;;;;14.38;9.10;;;;;;;;;;5058713;28;20318;-81
2021/08/27 02:44:07;;;;;;;14.65;9.05;;;;;;;;;;5058592;28;20411;-81
2021/08/27 02:46:34;;;;;;;15.70;9.48;;;;;;;;;;5040776;28;20410;-81
2021/08/27 02:49:00;;;;;;;14.75;10.02;;;;;;;;;;5058552;28;20025;-81
2021/08/27 02:51:34;;;;;;;13.70;8.98;;;;;;;;;;5040987;28;20033;-81
2021/08/27 02:54:02;;;;;;;12.35;8.25;;;;;;;;;;5058489;28;20037;-82
2021/08/27 02:56:31;;;;;;;14.15;8.15;;;;;;;;;;5058509;28;20021;-82
2021/08/27 02:58:58;;;;;;;13.85;7.43;;;;;;;;;;5040544;28;20028;-81
2021/08/27 03:01:38;;;;;;;12.75;7.97;;;;;;;;;;5040424;28;20445;-83
2021/08/27 03:04:09;;;;;;;12.40;7.93;;;;;;;;;;5040713;28;20037;-82
2021/08/27 03:06:48;;;;;;;12.52;8.77;;;;;;;;;;5058280;28;20056;-82
2021/08/27 03:09:14;;;;;;;13.98;8.23;;;;;;;;;;5058061;28;20044;-82
2021/08/27 03:11:50;;;;;;;12.18;8.38;;;;;;;;;;5058120;28;20025;-82
2021/08/27 03:14:19;;;;;;;11.05;7.80;;;;;;;;;;5040244;28;20032;-82
2021/08/27 03:16:47;;;;;;;13.45;7.45;;;;;;;;;;5058299;28;20025;-82
2021/08/27 03:19:21;;;;;;;10.63;7.53;;;;;;;;;;5058087;28;20164;-82
2021/08/27 03:22:05;;;;;;;10.93;6.88;;;;;;;;;;5058050;28;20036;-82
2021/08/27 03:24:34;;;;;;;10.20;6.78;;;;;;;;;;5058075;28;20064;-83
2021/08/27 03:27:01;;;;;;;11.35;6.45;;;;;;;;;;5040442;28;20021;-83
2021/08/27 03:29:34;;;;;;;9.82;6.18;;;;;;;;;;5058105;28;20032;-83
2021/08/27 03:32:00;;;;;;;13.75;6.03;;;;;;;;;;5057794;28;20024;-83
2021/08/27 03:34:27;;;;;;;10.65;6.43;;;;;;;;;;5039687;28;20037;-83
2021/08/27 03:36:54;;;;;;;12.98;6.43;;;;;;;;;;5057879;28;20116;-83
2021/08/27 03:39:20;;;;;;;12.10;6.82;;;;;;;;;;5057716;28;20021;-83
2021/08/27 03:41:46;;;;;;;10.65;5.82;;;;;;;;;;5057603;28;20036;-83
2021/08/27 03:44:15;;;;;;;13.18;6.53;;;;;;;;;;5057812;28;20327;-83
2021/08/27 03:46:41;;;;;;;9.52;6.25;;;;;;;;;;5057610;28;20474;-83
2021/08/27 03:49:07;;;;;;;11.90;6.30;;;;;;;;;;5039776;28;20444;-83
2021/08/27 03:51:33;;;;;;;9.50;5.82;;;;;;;;;;5057573;28;20029;-81
2021/08/27 03:54:00;;;;;;;9.73;6.07;;;;;;;;;;5057331;28;20032;-82
2021/08/27 03:56:27;;;;;;;11.77;6.47;;;;;;;;;;5039376;28;20123;-82
2021/08/27 03:58:54;;;;;;;11.02;5.75;;;;;;;;;;5039703;28;20066;-82
2021/08/27 04:01:21;;;;;;;9.20;5.70;;;;;;;;;;5039804;28;20017;-82
2021/08/27 04:03:47;;;;;;;9.63;5.80;;;;;;;;;;5057257;28;20033;-82
2021/08/27 04:06:13;;;;;;;11.57;5.47;;;;;;;;;;5057230;28;20040;-82
2021/08/27 04:08:42;;;;;;;9.63;5.93;;;;;;;;;;5057150;28;20052;-82
2021/08/27 04:11:09;;;;;;;8.68;5.13;;;;;;;;;;5039390;28;20065;-82
2021/08/27 04:13:35;;;;;;;9.07;5.35;;;;;;;;;;5039553;28;20051;-83
2021/08/27 04:16:01;;;;;;;9.52;5.20;;;;;;;;;;5039733;28;20111;-84
2021/08/27 04:18:27;;;;;;;9.77;5.43;;;;;;;;;;5057428;28;20021;-84
2021/08/27 04:20:53;;;;;;;8.75;5.70;;;;;;;;;;5057177;28;20036;-85
2021/08/27 04:23:19;;;;;;;7.35;5.45;;;;;;;;;;5039401;28;20049;-84
2021/08/27 04:25:46;;;;;;;10.77;5.65;;;;;;;;;;5057371;28;20082;-84
2021/08/27 04:28:12;;;;;;;7.40;4.80;;;;;;;;;;5057126;28;20021;-83
2021/08/27 04:30:38;;;;;;;9.60;5.50;;;;;;;;;;5057072;28;20434;-83
2021/08/27 04:33:04;;;;;;;12.00;5.50;;;;;;;;;;5056919;28;20044;-83
2021/08/27 04:35:30;;;;;;;12.02;5.30;;;;;;;;;;5039333;28;20112;-82
2021/08/27 04:37:57;;;;;;;11.10;5.32;;;;;;;;;;5057103;28;20028;-82
2021/08/27 04:40:23;;;;;;;10.07;5.55;;;;;;;;;;5056961;28;20017;-82
2021/08/27 04:42:49;;;;;;;8.13;5.60;;;;;;;;;;5056860;28;20024;-82
2021/08/27 04:45:15;;;;;;;10.85;5.07;;;;;;;;;;5038916;28;20323;-82
2021/08/27 04:47:42;;;;;;;10.27;5.60;;;;;;;;;;5056637;28;20104;-82
2021/08/27 04:50:08;;;;;;;11.45;5.72;;;;;;;;;;5056371;28;20017;-82
2021/08/27 04:52:34;;;;;;;8.93;5.72;;;;;;;;;;5056389;28;20064;-83
2021/08/27 04:55:01;;;;;;;9.88;5.75;;;;;;;;;;5039213;28;20322;-80
2021/08/27 04:57:28;;;;;;;11.13;6.20;;;;;;;;;;5037845;28;20083;-82
2021/08/27 04:59:54;;;;;;;10.20;5.72;;;;;;;;;;5038685;28;20316;-82
2021/08/27 05:02:21;;;;;;;11.15;6.22;;;;;;;;;;5056696;28;20100;-83
2021/08/27 05:04:47;;;;;;;12.77;6.80;;;;;;;;;;5056352;28;20423;-82
2021/08/27 05:07:13;;;;;;;9.77;6.50;;;;;;;;;;5060516;28;20288;-83
2021/08/27 05:09:39;;;;;;;14.43;7.38;;;;;;;;;;5060405;28;20067;-83
2021/08/27 05:12:05;;;;;;;10.85;6.85;;;;;;;;;;5042756;28;20045;-82
2021/08/27 05:14:31;;;;;;;9.70;7.03;;;;;;;;;;5060228;28;20027;-83
2021/08/27 05:16:57;;;;;;;11.38;7.57;;;;;;;;;;5060402;28;20028;-83
2021/08/27 05:19:23;;;;;;;11.65;7.05;;;;;;;;;;5060113;28;20437;-83
2021/08/27 05:21:49;;;;;;;13.93;7.75;;;;;;;;;;5060261;28;20017;-83
2021/08/27 05:24:16;;;;;;;13.38;7.35;;;;;;;;;;5059942;28;20088;-82
2021/08/27 05:26:42;;;;;;;10.88;7.97;;;;;;;;;;5042556;28;20032;-82
2021/08/27 05:29:08;;;;;;;13.63;8.27;;;;;;;;;;5042482;28;20029;-83
2021/08/27 05:31:34;;;;;;;11.77;8.15;;;;;;;;;;5059881;28;20029;-83
2021/08/27 05:34:01;;;;;;;13.73;8.40;;;;;;;;;;5059877;28;20314;-82
2021/08/27 05:36:27;;;;;;;11.43;8.48;;;;;;;;;;5042222;28;20017;-83
2021/08/27 05:38:53;;;;;;;11.73;8.68;;;;;;;;;;5059984;28;20053;-82
2021/08/27 05:41:20;;;;;;;14.75;8.85;;;;;;;;;;5042267;28;20403;-83
2021/08/27 05:43:46;;;;;;;13.73;8.20;;;;;;;;;;5059845;28;20029;-83
2021/08/27 05:46:12;;;;;;;11.45;7.97;;;;;;;;;;5059846;28;20300;-83
2021/08/27 05:48:38;;;;;;;12.75;8.68;;;;;;;;;;5059751;28;20064;-83
2021/08/27 05:51:05;;;;;;;13.95;8.32;;;;;;;;;;5041834;28;20129;-82
2021/08/27 05:53:31;;;;;;;14.38;8.50;;;;;;;;;;5059859;28;20065;-82
2021/08/27 05:55:57;;;;;;;16.00;8.10;;;;;;;;;;5059995;28;20096;-82
2021/08/27 05:58:23;;;;;;;13.10;8.05;;;;;;;;;;5059700;28;20028;-82
2021/08/27 06:00:50;;;;;;;12.52;7.47;;;;;;;;;;5059633;28;20118;-83
2021/08/27 06:03:16;;;;;;;13.77;7.38;;;;;;;;;;5059983;28;20024;-82
2021/08/27 06:05:45;;;;;;;13.88;7.22;;;;;;;;;;5059525;28;20029;-82
2021/08/27 06:08:11;;;;;;;9.85;6.60;;;;;;;;;;5059680;28;20040;-82
2021/08/27 06:10:37;;;;;;;11.10;6.28;;;;;;;;;;5059482;28;20032;-82
2021/08/27 06:13:03;;;;;;;12.93;7.07;;;;;;;;;;5059131;28;20025;-82
2021/08/27 06:15:29;;;;;;;11.48;6.60;;;;;;;;;;5041663;28;20095;-82
2021/08/27 06:17:55;;;;;;;11.43;6.53;;;;;;;;;;5058735;28;20027;-80
2021/08/27 06:20:21;;;;;;;9.55;6.65;;;;;;;;;;5059087;28;20021;-82
2021/08/27 06:22:47;;;;;;;8.90;6.57;;;;;;;;;;5040566;28;20080;-83
2021/08/27 06:25:13;;;;;;;9.35;6.38;;;;;;;;;;5059061;28;20036;-82
2021/08/27 06:27:40;;;;;;;9.27;6.57;;;;;;;;;;5058806;28;20029;-82
2021/08/27 06:30:06;;;;;;;11.73;6.35;;;;;;;;;;5059058;28;20031;-82
2021/08/27 06:32:32;;;;;;;11.93;6.68;;;;;;;;;;5041229;28;20024;-82
2021/08/27 06:34:59;;;;;;;12.88;8.18;;;;;;;;;;5058788;28;20067;-83
2021/08/27 06:40:10;;;;;;;9.57;5.90;;;;;;;;;;5059176;28;20079;-84
2021/08/27 06:42:36;;;;;;;9.13;5.88;;;;;;;;;;5058954;28;20052;-83
2021/08/27 06:45:02;;;;;;;8.77;6.15;;;;;;;;;;5058856;28;20033;-83
2021/08/27 06:47:28;;;;;;;10.20;6.15;;;;;;;;;;5040981;28;20045;-83
2021/08/27 06:49:54;;;;;;;11.35;6.28;;;;;;;;;;5058705;28;20066;-82
2021/08/27 06:52:20;;;;;;;9.57;5.78;;;;;;;;;;5049759;28;20040;-82
2021/08/27 06:54:46;;;;;;;11.82;6.20;;;;;;;;;;5038388;28;20399;-82
2021/08/27 06:57:12;;;;;;;9.70;6.35;;;;;;;;;;5020955;28;20037;-82
2021/08/27 06:59:38;;;;;;;11.48;5.88;;;;;;;;;;5038380;28;20319;-82
2021/08/27 07:02:04;;;;;;;9.38;6.28;;;;;;;;;;5038573;28;20100;-82
2021/08/27 07:04:31;;;;;;;11.38;6.60;;;;;;;;;;5038560;28;20033;-82
2021/08/27 07:06:57;;;;;;;9.00;6.10;;;;;;;;;;5038534;28;20022;-82
2021/08/27 07:09:24;;;;;;;9.25;6.25;;;;;;;;;;5037852;28;20029;-82
2021/08/27 07:11:50;;;;;;;9.60;6.47;;;;;;;;;;5020530;28;20030;-82
2021/08/27 07:14:16;;;;;;;9.70;6.15;;;;;;;;;;5020482;28;20026;-82
2021/08/27 07:16:43;;;;;;;10.15;6.63;;;;;;;;;;5020559;28;20032;-82
2021/08/27 07:19:09;;;;;;;9.65;6.93;;;;;;;;;;5037952;28;20064;-82
2021/08/27 07:21:35;;;;;;;15.60;8.70;;;;;;;;;;5038334;28;20022;-82
2021/08/27 07:24:06;;;;;;;15.27;9.13;;;;;;;;;;5037855;28;20056;-82
2021/08/27 07:26:32;;;;;;;12.55;7.57;;;;;;;;;;5038070;28;20022;-82
2021/08/27 07:28:59;;;;;;;9.30;6.80;;;;;;;;;;5037334;28;20179;-82
2021/08/27 07:31:25;;;;;;;12.82;8.07;;;;;;;;;;5037855;28;20025;-82
2021/08/27 07:33:51;;;;;;;12.55;7.65;;;;;;;;;;5038153;28;20037;-82
2021/08/27 07:36:17;;;;;;;13.57;9.50;;;;;;;;;;5038075;28;20033;-83
2021/08/27 07:38:43;;;;;;;15.52;11.02;;;;;;;;;;5055272;28;20086;-81
2021/08/27 07:41:09;;;;;;;18.20;13.50;;;;;;;;;;5040157;28;20021;-82
2021/08/27 07:43:35;;;;;;;21.33;12.80;;;;;;;;;;5057734;28;20028;-82
2021/08/27 07:46:01;;;;;;;26.13;14.95;;;;;;;;;;5039988;28;20090;-83
2021/08/27 07:48:28;;;;;;;14.13;9.00;;;;;;;;;;5042846;28;20044;-83
2021/08/27 07:50:54;;;;;;;14.13;10.48;;;;;;;;;;5037716;28;20032;-82
2021/08/27 07:53:57;;;;;;;14.93;10.38;;;;;;;;;;5057428;28;20033;-82
2021/08/27 07:56:23;;;;;;;18.48;9.90;;;;;;;;;;5039930;28;20051;-82
2021/08/27 07:58:49;;;;;;;18.52;11.25;;;;;;;;;;5057347;28;20021;-83
2021/08/27 08:01:15;;;;;;;23.55;14.00;;;;;;;;;;5039730;28;20025;-82
2021/08/27 08:03:41;;;;;;;14.73;11.05;;;;;;;;;;5057339;28;20049;-82
2021/08/27 08:06:08;;;;;;;12.25;9.13;;;;;;;;;;5039691;28;20036;-82
2021/08/27 08:08:34;;;;;;;11.15;8.85;;;;;;;;;;5057085;28;20033;-82
2021/08/27 08:11:00;;;;;;;11.10;7.90;;;;;;;;;;5057331;28;20029;-82
2021/08/27 08:13:26;;;;;;;10.82;6.95;;;;;;;;;;5056827;28;20056;-82
2021/08/27 08:15:52;;;;;;;12.80;8.00;;;;;;;;;;5038907;28;20029;-82
2021/08/27 08:18:18;;;;;;;11.43;7.55;;;;;;;;;;5057199;28;20415;-82
2021/08/27 08:20:44;;;;;;;9.55;6.30;;;;;;;;;;5057072;28;20441;-83
2021/08/27 08:23:10;;;;;;;10.32;7.18;;;;;;;;;;5056972;28;20041;-83
2021/08/27 08:25:36;;;;;;;9.65;6.70;;;;;;;;;;5057198;28;20029;-82
2021/08/27 08:28:05;;;;;;;9.68;6.85;;;;;;;;;;5056733;28;20021;-83
2021/08/27 08:30:31;;;;;;;27.30;10.70;;;;;;;;;;5039455;28;20024;-83
2021/08/27 08:32:57;;;;;;;18.13;9.30;;;;;;;;;;5039354;28;20029;-83
2021/08/27 08:35:23;;;;;;;11.18;6.90;;;;;;;;;;5038902;28;20039;-83
2021/08/27 08:37:49;;;;;;;8.98;6.80;;;;;;;;;;5056986;28;20021;-83
2021/08/27 08:40:15;;;;;;;12.68;7.03;;;;;;;;;;5059044;28;20028;-83
2021/08/27 08:42:42;;;;;;;18.42;9.60;;;;;;;;;;5061173;28;20296;-83
2021/08/27 08:45:08;;;;;;;9.75;6.80;;;;;;;;;;5060990;28;20020;-82
2021/08/27 08:47:38;;;;;;;12.45;8.77;;;;;;;;;;5060994;28;20059;-82
2021/08/27 08:50:04;;;;;;;9.45;6.25;;;;;;;;;;5060852;28;20049;-82
2021/08/27 08:52:31;;;;;;;12.10;7.43;;;;;;;;;;5060559;28;20033;-82
2021/08/27 08:54:57;;;;;;;22.23;10.82;;;;;;;;;;5060665;28;20029;-82
2021/08/27 08:57:23;;;;;;;16.52;9.18;;;;;;;;;;5060788;28;20059;-82
2021/08/27 08:59:53;;;;;;;15.13;8.73;;;;;;;;;;5060678;28;20013;-82
2021/08/27 09:02:21;;;;;;;9.15;6.10;;;;;;;;;;5060400;28;20036;-82
2021/08/27 09:04:47;;;;;;;13.10;7.88;;;;;;;;;;5060745;28;20029;-83
2021/08/27 09:07:14;;;;;;;11.65;7.88;;;;;;;;;;5060741;28;20033;-83
2021/08/27 09:09:40;;;;;;;12.38;7.40;;;;;;;;;;5060500;28;20021;-82
2021/08/27 09:12:17;;;;;;;28.17;15.35;;;;;;;;;;5060672;28;20029;-82
2021/08/27 09:14:54;;;;;;;12.05;6.85;;;;;;;;;;5060343;28;20021;-82
2021/08/27 09:17:27;;;;;;;11.98;7.85;;;;;;;;;;5042472;28;20017;-82
2021/08/27 09:19:53;;;;;;;13.38;8.63;;;;;;;;;;5060215;28;20430;-82
2021/08/27 09:22:20;;;;;;;13.45;8.77;;;;;;;;;;5060057;28;20049;-82
2021/08/27 09:25:03;;;;;;;16.23;9.60;;;;;;;;;;5042473;28;20067;-82
2021/08/27 09:27:29;;;;;;;10.48;7.50;;;;;;;;;;5042442;28;20031;-82
2021/08/27 09:29:55;;;;;;;9.35;6.30;;;;;;;;;;5042163;28;20033;-82
2021/08/27 09:32:21;;;;;;;10.73;6.15;;;;;;;;;;5060117;28;20040;-82
2021/08/27 09:34:47;;;;;;;10.63;6.85;;;;;;;;;;5042336;28;20039;-82
2021/08/27 09:37:14;;;;;;;8.93;6.63;;;;;;;;;;5042377;28;20021;-82
2021/08/27 09:39:40;;;;;;;9.20;6.55;;;;;;;;;;5059984;28;20048;-83
2021/08/27 09:42:06;;;;;;;8.00;6.03;;;;;;;;;;5042125;28;20024;-82
2021/08/27 09:44:32;;;;;;;17.30;6.93;;;;;;;;;;5055335;28;20041;-81
2021/08/27 09:47:05;;;;;;;10.77;7.07;;;;;;;;;;5052570;28;20047;-82
2021/08/27 09:49:33;;;;;;;9.52;6.55;;;;;;;;;;5039652;28;20033;-82
2021/08/27 09:52:00;;;;;;;18.48;12.95;;;;;;;;;;5039074;28;20350;-82
2021/08/27 09:54:26;;;;;;;12.43;8.88;;;;;;;;;;5039641;28;20037;-82
2021/08/27 09:56:54;;;;;;;7.93;5.38;;;;;;;;;;5039593;28;20026;-82
2021/08/27 09:59:38;;;;;;;7.88;6.50;;;;;;;;;;5039886;28;20403;-82
2021/08/27 10:02:09;;;;;;;13.27;7.88;;;;;;;;;;5039808;28;20025;-82
2021/08/27 10:04:37;;;;;;;20.42;10.02;;;;;;;;;;5039457;28;20296;-81
2021/08/27 10:07:03;;;;;;;9.68;6.82;;;;;;;;;;5039472;28;20032;-81
2021/08/27 10:09:43;;;;;;;10.63;6.57;;;;;;;;;;5038988;28;20025;-81
2021/08/27 10:12:09;;;;;;;9.38;6.22;;;;;;;;;;5039808;28;20037;-81
2021/08/27 10:14:35;;;;;;;11.55;7.15;;;;;;;;;;5021146;28;20040;-81
2021/08/27 10:17:03;;;;;;;7.82;6.18;;;;;;;;;;5039300;28;20020;-82
2021/08/27 10:19:29;;;;;;;8.07;6.50;;;;;;;;;;5039315;28;20037;-82
2021/08/27 10:21:55;;;;;;;11.27;7.43;;;;;;;;;;5039486;28;20415;-82
2021/08/27 10:24:21;;;;;;;9.05;6.60;;;;;;;;;;5038997;28;20444;-82
2021/08/27 10:26:47;;;;;;;9.30;6.03;;;;;;;;;;5039159;28;20422;-82
2021/08/27 10:29:13;;;;;;;10.20;6.30;;;;;;;;;;5038965;28;20029;-82
2021/08/27 10:31:50;;;;;;;8.57;5.65;;;;;;;;;;5039036;28;20029;-82
2021/08/27 10:34:17;;;;;;;8.90;5.53;;;;;;;;;;5038906;28;20095;-83
2021/08/27 10:36:47;;;;;;;8.32;5.70;;;;;;;;;;5038183;28;20029;-82
2021/08/27 10:39:31;;;;;;;7.38;5.20;;;;;;;;;;5038945;28;20053;-82
2021/08/27 10:41:57;;;;;;;8.07;4.78;;;;;;;;;;5021177;28;20408;-82
2021/08/27 10:44:43;;;;;;;9.00;5.40;;;;;;;;;;5021244;28;20076;-82
2021/08/27 10:47:09;;;;;;;6.53;4.88;;;;;;;;;;5038566;28;20029;-82
2021/08/27 10:49:45;;;;;;;7.82;4.95;;;;;;;;;;5021130;28;20320;-81
2021/08/27 10:52:23;;;;;;;7.32;4.72;;;;;;;;;;5038891;28;20025;-82
2021/08/27 10:55:05;;;;;;;7.45;5.00;;;;;;;;;;5021071;28;20029;-82
2021/08/27 10:58:05;;;;;;;10.55;5.28;;;;;;;;;;5038567;28;20052;-82
2021/08/27 11:00:31;;;;;;;11.07;4.13;;;;;;;;;;4961708;28;20031;-83
2021/08/27 11:02:58;;;;;;;8.93;4.70;;;;;;;;;;4976905;28;20031;-83
2021/08/27 11:05:53;;;;;;;7.10;4.30;;;;;;;;;;4977910;28;20088;-82
2021/08/27 11:08:33;;;;;;;6.03;4.07;;;;;;;;;;4939208;29;20359;-82
2021/08/27 11:11:08;;;;;;;8.88;3.88;;;;;;;;;;4939345;29;20114;-82
2021/08/27 11:13:35;;;;;;;6.93;4.38;;;;;;;;;;4923067;29;20192;-82
2021/08/27 11:16:21;;;;;;;9.38;4.30;;;;;;;;;;4939026;29;20035;-82
2021/08/27 11:18:48;;;;;;;5.70;3.78;;;;;;;;;;4923002;29;20042;-82
2021/08/27 11:21:33;;;;;;;5.40;3.60;;;;;;;;;;4939143;29;20330;-82
2021/08/27 11:24:12;;;;;;;8.82;5.30;;;;;;;;;;4922863;29;20050;-82
2021/08/27 11:26:42;;;;;;;12.13;7.60;;;;;;;;;;4938998;29;20055;-81
2021/08/27 11:29:27;;;;;;;6.00;3.53;;;;;;;;;;4923023;29;20032;-82
2021/08/27 11:31:54;;;;;;;7.68;3.58;;;;;;;;;;4938844;29;20032;-81
2021/08/27 11:34:23;;;;;;;5.45;3.50;;;;;;;;;;4922351;29;20091;-82
2021/08/27 11:36:50;;;;;;;5.80;3.85;;;;;;;;;;4986376;28;20126;-83
2021/08/27 11:39:16;;;;;;;6.70;3.58;;;;;;;;;;4996677;28;20440;-82
2021/08/27 11:41:43;;;;;;;4.72;3.40;;;;;;;;;;4996595;28;20108;-82
2021/08/27 11:44:12;;;;;;;4.88;3.15;;;;;;;;;;5008073;28;20033;-82
2021/08/27 11:46:39;;;;;;;4.68;3.10;;;;;;;;;;5037895;28;20025;-82
2021/08/27 11:49:14;;;;;;;5.10;3.13;;;;;;;;;;5037656;28;20108;-82
2021/08/27 11:52:02;;;;;;;5.30;3.60;;;;;;;;;;5037929;28;20055;-82
2021/08/27 11:54:28;;;;;;;5.72;3.78;;;;;;;;;;5019648;28;20374;-82
2021/08/27 11:56:55;;;;;;;6.45;3.80;;;;;;;;;;5019967;28;20029;-82
2021/08/27 11:59:30;;;;;;;5.75;3.90;;;;;;;;;;5037579;28;20025;-82
2021/08/27 12:01:56;;;;;;;4.95;3.65;;;;;;;;;;5037425;28;20498;-82
2021/08/27 12:04:30;;;;;;;6.88;3.78;;;;;;;;;;5037547;28;20355;-82
2021/08/27 12:07:06;;;;;;;4.85;3.45;;;;;;;;;;5037582;28;20032;-82
2021/08/27 12:09:32;;;;;;;6.05;4.00;;;;;;;;;;5024244;28;20136;-83
2021/08/27 12:11:58;;;;;;;5.25;3.55;;;;;;;;;;5019760;28;20028;-82
2021/08/27 12:14:44;;;;;;;6.40;3.80;;;;;;;;;;5037035;28;20052;-82
2021/08/27 12:17:10;;;;;;;5.35;4.10;;;;;;;;;;5019606;28;20018;-82
2021/08/27 12:19:40;;;;;;;7.05;4.40;;;;;;;;;;5037530;28;20037;-82
2021/08/27 12:22:06;;;;;;;5.68;4.05;;;;;;;;;;5037043;28;20041;-82
2021/08/27 12:24:35;;;;;;;6.97;4.50;;;;;;;;;;5037382;28;20026;-82
2021/08/27 12:27:03;;;;;;;6.15;4.40;;;;;;;;;;5037145;28;20049;-82
2021/08/27 12:29:29;;;;;;;5.35;3.95;;;;;;;;;;5019700;28;20052;-82
2021/08/27 12:31:55;;;;;;;5.07;3.78;;;;;;;;;;5019502;28;20075;-82
2021/08/27 12:34:21;;;;;;;43.88;31.33;;;;;;;;;;5019427;28;20037;-82
2021/08/27 12:36:48;;;;;;;11.40;8.20;;;;;;;;;;5019333;28;20030;-81
2021/08/27 12:39:17;;;;;;;20.20;14.90;;;;;;;;;;5045402;28;20026;-81
2021/08/27 12:41:43;;;;;;;9.30;6.78;;;;;;;;;;5036582;28;20053;-81
2021/08/27 12:44:16;;;;;;;14.75;10.70;;;;;;;;;;5040106;28;20028;-81
2021/08/27 12:46:49;;;;;;;16.67;9.30;;;;;;;;;;5040223;28;20116;-82
2021/08/27 12:49:17;;;;;;;11.15;7.80;;;;;;;;;;5057367;28;20029;-83
2021/08/27 12:51:44;;;;;;;16.40;11.95;;;;;;;;;;5040090;28;20319;-82
2021/08/27 12:54:10;;;;;;;17.27;10.02;;;;;;;;;;5051478;28;20033;-82
2021/08/27 12:56:37;;;;;;;15.98;11.50;;;;;;;;;;5037254;28;20439;-82
2021/08/27 12:59:16;;;;;;;8.57;5.60;;;;;;;;;;5037299;28;20018;-81
2021/08/27 13:01:43;;;;;;;7.00;4.38;;;;;;;;;;5037012;28;20025;-81
2021/08/27 13:04:09;;;;;;;5.68;3.47;;;;;;;;;;5037017;28;20412;-81
2021/08/27 13:06:37;;;;;;;7.75;4.15;;;;;;;;;;5037028;28;20034;-82
2021/08/27 13:09:03;;;;;;;6.40;4.35;;;;;;;;;;5019875;28;20104;-81
2021/08/27 13:11:46;;;;;;;6.80;3.83;;;;;;;;;;5019395;28;20579;-82
2021/08/27 13:14:40;;;;;;;5.32;3.72;;;;;;;;;;5036683;28;20471;-81
2021/08/27 13:17:15;;;;;;;5.88;3.92;;;;;;;;;;5017774;28;20339;-81
2021/08/27 13:19:47;;;;;;;5.18;3.80;;;;;;;;;;5036865;28;20021;-81
2021/08/27 13:22:14;;;;;;;7.13;4.30;;;;;;;;;;5019554;28;20121;-83
2021/08/27 13:24:40;;;;;;;5.55;4.05;;;;;;;;;;5036885;28;20041;-75
2021/08/27 13:27:06;;;;;;;6.97;4.53;;;;;;;;;;5038642;28;20042;-76
2021/08/27 13:29:32;;;;;;;6.00;4.15;;;;;;;;;;5022865;28;20067;-75
2021/08/27 13:31:59;;;;;;;6.93;4.53;;;;;;;;;;5023081;28;20084;-80
2021/08/27 13:34:25;;;;;;;5.85;4.00;;;;;;;;;;5023066;28;20037;-79
2021/08/27 13:36:51;;;;;;;8.10;3.53;;;;;;;;;;5040742;28;20025;-80
2021/08/27 13:39:17;;;;;;;5.15;3.78;;;;;;;;;;5023387;28;20028;-80
2021/08/27 13:41:44;;;;;;;5.40;3.65;;;;;;;;;;5040897;28;20419;-80
2021/08/27 13:44:10;;;;;;;7.13;4.55;;;;;;;;;;5023401;28;20029;-80
2021/08/27 13:46:37;;;;;;;5.30;3.90;;;;;;;;;;5041111;28;20037;-80
2021/08/27 13:49:06;;;;;;;5.57;4.07;;;;;;;;;;5040847;28;20100;-79
2021/08/27 13:51:33;;;;;;;5.78;4.00;;;;;;;;;;5040375;28;20377;-79
2021/08/27 13:54:03;;;;;;;6.00;4.00;;;;;;;;;;5040504;28;20334;-80
2021/08/27 13:56:30;;;;;;;6.18;4.13;;;;;;;;;;5039822;28;20113;-80
2021/08/27 13:58:58;;;;;;;5.90;4.00;;;;;;;;;;5039748;28;20018;-80
2021/08/27 14:01:25;;;;;;;4.80;3.70;;;;;;;;;;5021968;28;20064;-79
2021/08/27 14:03:51;;;;;;;5.18;3.80;;;;;;;;;;5039399;28;20030;-79
2021/08/27 14:06:17;;;;;;;6.45;3.67;;;;;;;;;;5039514;28;20033;-80
2021/08/27 14:08:43;;;;;;;5.55;3.50;;;;;;;;;;5039376;28;20359;-79
2021/08/27 14:11:09;;;;;;;3.70;2.92;;;;;;;;;;5021739;28;20418;-79
2021/08/27 14:13:35;;;;;;;4.15;3.30;;;;;;;;;;5039181;28;20431;-79
2021/08/27 14:16:01;;;;;;;5.45;3.80;;;;;;;;;;5039548;28;20022;-79
2021/08/27 14:18:27;;;;;;;6.00;3.60;;;;;;;;;;5039180;28;20030;-79
2021/08/27 14:20:53;;;;;;;4.65;3.03;;;;;;;;;;5039155;28;20475;-79
2021/08/27 14:23:19;;;;;;;4.75;3.42;;;;;;;;;;5038938;28;20339;-79
2021/08/27 14:25:45;;;;;;;4.60;3.25;;;;;;;;;;5038918;28;20021;-79
2021/08/27 14:28:11;;;;;;;5.82;3.83;;;;;;;;;;5039144;28;20067;-79
2021/08/27 14:30:38;;;;;;;5.18;3.60;;;;;;;;;;5038939;28;20021;-79
2021/08/27 14:33:05;;;;;;;5.47;3.22;;;;;;;;;;5039058;28;20028;-79
2021/08/27 14:35:32;;;;;;;6.40;4.22;;;;;;;;;;5038906;28;20025;-79
2021/08/27 14:37:58;;;;;;;6.30;3.88;;;;;;;;;;5038583;28;20048;-80
2021/08/27 14:40:24;;;;;;;4.10;3.20;;;;;;;;;;5038717;28;20018;-80